McKinney's Hourly Summary for Wednesday, March 15, 2017
Hour Temp
(f)
RH
(%)
Solar Rad.
(MJ/m2)
Rainfall
(in)
Wind
(mph)
3/15/2017 12:00 AM 48 54 0 0 0.54
3/15/2017 1:00 AM 47 53 0 0 1.99
3/15/2017 2:00 AM 45 57 0 0 2.44
3/15/2017 3:00 AM 44 59 0 0 2
3/15/2017 4:00 AM 44 59 0 0 2.65
3/15/2017 5:00 AM 43 61 0 0 3.57
3/15/2017 6:00 AM 43 63 0 0 3.24
3/15/2017 7:00 AM 43 65 0 0 3.75
3/15/2017 8:00 AM 43 68 0.01 0 3.35
3/15/2017 9:00 AM 42 69 0.16 0 3.54
3/15/2017 10:00 AM 43 68 0.58 0 4.46
3/15/2017 11:00 AM 45 66 1.07 0 4.68
3/15/2017 12:00 PM 47 62 1.81 0 5.15
3/15/2017 1:00 PM 50 57 2.6 0 5.69
3/15/2017 2:00 PM 53 54 2.43 0 5.8
3/15/2017 3:00 PM 56 49 2.46 0 7.44
3/15/2017 4:00 PM 58 48 2.19 0 7.16
3/15/2017 5:00 PM 60 46 1.73 0 6.97
3/15/2017 6:00 PM 59 46 1.06 0 6.97
3/15/2017 7:00 PM 58 51 0.41 0 6.03
3/15/2017 8:00 PM 54 57 0.03 0 3.46
3/15/2017 9:00 PM 50 67 0 0 0.33
3/15/2017 10:00 PM 49 68 0 0 0.06
3/15/2017 11:00 PM 48 72 0 0 0.1
Data Summary 48 59 16.54 0.00 3.81